createdAt,value
2023-01-12T00:01:47.582Z,9.58
2023-01-12T00:04:14.657Z,9.81
2023-01-12T00:06:41.588Z,9.82
2023-01-12T00:09:08.559Z,9.88
2023-01-12T00:11:35.654Z,9.87
2023-01-12T00:14:02.538Z,9.90
2023-01-12T00:16:35.101Z,9.90
2023-01-12T00:19:02.494Z,9.93
2023-01-12T00:21:29.279Z,9.94
2023-01-12T00:23:55.808Z,9.90
2023-01-12T00:26:22.347Z,9.96
2023-01-12T00:28:48.815Z,9.93
2023-01-12T00:31:15.524Z,9.93
2023-01-12T00:33:41.987Z,9.94
2023-01-12T00:36:11.475Z,9.91
2023-01-12T00:38:38.573Z,9.94
2023-01-12T00:41:41.770Z,9.99
2023-01-12T00:44:26.934Z,10.10
2023-01-12T00:46:53.472Z,10.15
2023-01-12T00:49:20.019Z,10.07
2023-01-12T00:51:46.662Z,10.03
2023-01-12T00:54:13.100Z,9.95
2023-01-12T00:56:39.983Z,9.87
2023-01-12T00:59:06.715Z,9.83
2023-01-12T01:01:34.327Z,9.82
2023-01-12T01:04:01.181Z,9.82
2023-01-12T01:06:30.500Z,9.88
2023-01-12T01:08:56.996Z,9.86
2023-01-12T01:11:23.517Z,9.84
2023-01-12T01:13:55.500Z,9.84
2023-01-12T01:16:22.082Z,9.94
2023-01-12T01:18:48.618Z,9.96
2023-01-12T01:21:15.201Z,10.03
2023-01-12T01:23:42.655Z,10.06
2023-01-12T01:26:11.036Z,10.10
2023-01-12T01:28:37.505Z,10.10
2023-01-12T01:31:05.219Z,10.07
2023-01-12T01:33:32.147Z,10.06
2023-01-12T01:35:59.010Z,10.11
2023-01-12T01:38:25.829Z,10.12
2023-01-12T01:40:52.371Z,10.10
2023-01-12T01:43:22.190Z,10.14
2023-01-12T01:46:02.483Z,10.19
2023-01-12T01:48:31.174Z,10.20
2023-01-12T01:51:00.643Z,10.20
2023-01-12T01:53:28.594Z,10.27
2023-01-12T01:55:59.057Z,10.29
2023-01-12T01:58:38.078Z,10.33
2023-01-12T02:01:04.841Z,10.31
2023-01-12T02:03:34.055Z,10.32
2023-01-12T02:06:03.038Z,10.17
2023-01-12T02:08:48.455Z,10.21
2023-01-12T02:11:34.670Z,10.22
2023-01-12T02:14:19.829Z,10.20
2023-01-12T02:17:06.837Z,10.16
2023-01-12T02:19:52.968Z,10.04
2023-01-12T02:22:39.993Z,10.09
2023-01-12T02:25:26.080Z,10.09
2023-01-12T02:28:13.238Z,10.06
2023-01-12T02:30:39.742Z,9.99
2023-01-12T02:33:25.042Z,9.92
2023-01-12T02:35:59.193Z,9.86
2023-01-12T02:38:36.250Z,9.86
2023-01-12T02:41:02.681Z,9.84
2023-01-12T02:43:30.134Z,9.85
2023-01-12T02:46:11.931Z,9.88
2023-01-12T02:48:40.534Z,9.89
2023-01-12T02:51:17.743Z,10.02
2023-01-12T02:53:47.285Z,10.10
2023-01-12T02:56:16.846Z,10.10
2023-01-12T02:58:46.844Z,10.10
2023-01-12T03:01:14.891Z,10.19
2023-01-12T03:03:41.752Z,10.18
2023-01-12T03:06:08.430Z,10.17
2023-01-12T03:08:37.346Z,10.02
2023-01-12T03:11:03.892Z,10.08
2023-01-12T03:13:32.221Z,10.15
2023-01-12T03:16:00.753Z,10.17
2023-01-12T03:18:36.722Z,10.20
2023-01-12T03:21:09.402Z,10.24
2023-01-12T03:23:47.611Z,10.25
2023-01-12T03:26:15.701Z,10.32
2023-01-12T03:28:46.535Z,10.34
2023-01-12T03:31:13.663Z,10.32
2023-01-12T03:33:41.145Z,10.25
2023-01-12T03:36:14.055Z,10.20
2023-01-12T03:38:45.681Z,10.18
2023-01-12T03:41:17.915Z,10.16
2023-01-12T03:43:49.877Z,10.25
2023-01-12T03:46:22.629Z,10.28
2023-01-12T03:48:49.407Z,10.32
2023-01-12T03:51:20.186Z,10.28
2023-01-12T03:53:49.298Z,10.32
2023-01-12T03:56:17.038Z,10.33
2023-01-12T03:58:44.215Z,10.34
2023-01-12T04:01:11.312Z,10.32
2023-01-12T04:03:37.984Z,10.34
2023-01-12T04:06:04.518Z,10.38
2023-01-12T04:08:31.719Z,10.40
2023-01-12T04:10:58.153Z,10.43
2023-01-12T04:13:24.728Z,10.36
2023-01-12T04:15:51.343Z,10.30
2023-01-12T04:18:17.826Z,10.35
2023-01-12T04:20:44.342Z,10.40
2023-01-12T04:23:11.018Z,10.46
2023-01-12T04:25:37.470Z,10.46
2023-01-12T04:28:04.515Z,10.44
2023-01-12T04:30:32.004Z,10.44
2023-01-12T04:32:58.915Z,10.44
2023-01-12T04:35:25.785Z,10.38
2023-01-12T04:37:52.679Z,10.35
2023-01-12T04:40:19.835Z,10.34
2023-01-12T04:43:08.486Z,10.36
2023-01-12T04:45:36.876Z,10.34
2023-01-12T04:48:05.088Z,10.36
2023-01-12T04:50:32.073Z,10.40
2023-01-12T04:52:58.823Z,10.41
2023-01-12T04:55:25.376Z,10.48
2023-01-12T04:57:51.843Z,10.47
2023-01-12T05:00:18.725Z,10.47
2023-01-12T05:02:45.213Z,10.49
2023-01-12T05:05:11.715Z,10.46
2023-01-12T05:07:58.167Z,10.47
2023-01-12T05:10:24.654Z,10.51
2023-01-12T05:12:51.195Z,10.55
2023-01-12T05:15:18.057Z,10.54
2023-01-12T05:17:46.107Z,10.54
2023-01-12T05:20:12.851Z,10.50
2023-01-12T05:22:39.334Z,10.54
2023-01-12T05:25:06.102Z,10.56
2023-01-12T05:27:32.768Z,10.54
2023-01-12T05:29:59.700Z,10.46
2023-01-12T05:32:26.633Z,10.46
2023-01-12T05:34:53.273Z,10.53
2023-01-12T05:37:19.821Z,10.51
2023-01-12T05:39:46.485Z,10.48
2023-01-12T05:42:31.468Z,10.45
2023-01-12T05:44:58.025Z,10.40
2023-01-12T05:47:24.468Z,10.39
2023-01-12T05:49:51.023Z,10.30
2023-01-12T05:52:17.575Z,10.39
2023-01-12T05:54:44.155Z,10.49
2023-01-12T05:57:10.653Z,10.49
2023-01-12T05:59:37.324Z,10.40
2023-01-12T06:02:04.008Z,10.46
2023-01-12T06:04:30.730Z,10.45
2023-01-12T06:06:57.308Z,10.44
2023-01-12T06:09:23.810Z,10.41
2023-01-12T06:12:08.919Z,10.33
2023-01-12T06:14:35.621Z,10.39
2023-01-12T06:17:02.190Z,10.41
2023-01-12T06:19:28.733Z,10.46
2023-01-12T06:21:55.248Z,10.54
2023-01-12T06:24:21.844Z,10.59
2023-01-12T06:26:48.431Z,10.61
2023-01-12T06:29:14.997Z,10.63
2023-01-12T06:31:45.530Z,10.59
2023-01-12T06:34:12.246Z,10.54
2023-01-12T06:36:41.887Z,10.54
2023-01-12T06:39:09.081Z,10.58
2023-01-12T06:41:54.387Z,10.59
2023-01-12T06:44:20.973Z,10.50
2023-01-12T06:46:47.869Z,10.44
2023-01-12T06:49:16.520Z,10.46
2023-01-12T06:51:44.007Z,10.48
2023-01-12T06:54:10.994Z,10.45
2023-01-12T06:56:40.466Z,10.42
2023-01-12T06:59:07.374Z,10.46
2023-01-12T07:01:37.130Z,10.52
2023-01-12T07:04:03.685Z,10.51
2023-01-12T07:06:30.385Z,10.51
2023-01-12T07:08:57.192Z,10.49
2023-01-12T07:11:24.205Z,10.54
2023-01-12T07:13:50.929Z,10.49
2023-01-12T07:16:17.818Z,10.48
2023-01-12T07:18:52.167Z,10.48
2023-01-12T07:21:22.231Z,10.49
2023-01-12T07:23:48.950Z,10.49
2023-01-12T07:26:15.762Z,10.35
2023-01-12T07:28:42.906Z,10.39
2023-01-12T07:31:09.855Z,10.44
2023-01-12T07:33:38.455Z,10.49
2023-01-12T07:36:05.462Z,10.55
2023-01-12T07:38:32.341Z,10.59
2023-01-12T07:41:00.483Z,10.54
2023-01-12T07:43:30.503Z,10.53
2023-01-12T07:45:57.702Z,10.45
2023-01-12T07:48:25.149Z,10.32
2023-01-12T07:50:52.246Z,10.47
2023-01-12T07:53:19.625Z,10.47
2023-01-12T07:55:46.525Z,10.51
2023-01-12T07:58:13.124Z,10.53
2023-01-12T08:00:39.796Z,10.44
2023-01-12T08:03:08.185Z,10.48
2023-01-12T08:05:35.243Z,10.51
2023-01-12T08:08:03.621Z,10.49
2023-01-12T08:10:30.358Z,10.38
2023-01-12T08:12:57.203Z,10.44
2023-01-12T08:15:24.851Z,10.43
2023-01-12T08:18:03.802Z,10.27
2023-01-12T08:20:36.003Z,10.39
2023-01-12T08:23:05.568Z,10.47
2023-01-12T08:25:35.360Z,10.52
2023-01-12T08:28:04.734Z,10.53
2023-01-12T08:30:31.473Z,10.53
2023-01-12T08:33:00.740Z,10.47
2023-01-12T08:35:28.679Z,10.44
2023-01-12T08:37:56.150Z,10.45
2023-01-12T08:40:23.589Z,10.45
2023-01-12T08:42:50.438Z,10.48
2023-01-12T08:45:17.214Z,10.51
2023-01-12T08:47:45.314Z,10.53
2023-01-12T08:50:11.983Z,10.61
2023-01-12T08:52:38.610Z,10.61
2023-01-12T08:55:05.547Z,10.69
2023-01-12T08:57:32.091Z,10.83
2023-01-12T08:59:58.699Z,10.81
2023-01-12T09:02:27.217Z,10.85
2023-01-12T09:04:53.909Z,10.80
2023-01-12T09:07:20.715Z,10.80
2023-01-12T09:09:47.222Z,10.85
2023-01-12T09:12:16.680Z,10.85
2023-01-12T09:14:43.284Z,10.92
2023-01-12T09:17:09.852Z,10.92
2023-01-12T09:19:36.349Z,10.95
2023-01-12T09:22:03.176Z,10.99
2023-01-12T09:24:29.697Z,11.03
2023-01-12T09:26:56.247Z,10.99
2023-01-12T09:29:22.795Z,11.07
2023-01-12T09:31:49.469Z,11.16
2023-01-12T09:34:16.123Z,11.14
2023-01-12T09:36:42.709Z,11.21
2023-01-12T09:39:15.513Z,11.24
2023-01-12T09:42:08.213Z,11.30
2023-01-12T09:44:56.975Z,11.35
2023-01-12T09:47:23.501Z,11.43
2023-01-12T09:50:01.273Z,11.50
2023-01-12T09:52:45.155Z,11.58
2023-01-12T09:55:16.622Z,11.70
2023-01-12T09:57:43.691Z,11.80
2023-01-12T10:00:14.152Z,11.79
2023-01-12T10:02:46.662Z,11.74
2023-01-12T10:05:39.581Z,11.69
2023-01-12T10:08:09.630Z,11.77
2023-01-12T10:10:36.065Z,11.77
2023-01-12T10:13:04.824Z,11.77
2023-01-12T10:15:39.678Z,11.72
2023-01-12T10:18:12.725Z,11.74
2023-01-12T10:20:40.573Z,11.92
2023-01-12T10:23:07.191Z,11.92
2023-01-12T10:25:39.377Z,12.14
2023-01-12T10:28:21.875Z,12.33
2023-01-12T10:30:48.935Z,12.37
2023-01-12T10:33:15.484Z,12.31
2023-01-12T10:36:00.510Z,12.24
2023-01-12T10:38:30.052Z,12.24
2023-01-12T10:41:22.717Z,12.22
2023-01-12T10:43:58.517Z,12.22
2023-01-12T10:46:27.433Z,12.20
2023-01-12T10:48:56.391Z,12.21
2023-01-12T10:51:23.001Z,12.11
2023-01-12T10:53:51.398Z,12.12
2023-01-12T10:56:32.382Z,12.15
2023-01-12T10:59:14.615Z,12.15
2023-01-12T11:01:45.499Z,12.15
2023-01-12T11:04:14.153Z,12.19
2023-01-12T11:06:45.309Z,12.22
2023-01-12T11:09:25.750Z,12.10
2023-01-12T11:12:00.141Z,12.11
2023-01-12T11:14:30.775Z,12.29
2023-01-12T11:17:08.770Z,12.34
2023-01-12T11:19:38.662Z,12.32
2023-01-12T11:22:10.679Z,12.37
2023-01-12T11:24:43.689Z,12.41
2023-01-12T11:27:16.987Z,12.43
2023-01-12T11:29:54.505Z,12.42
2023-01-12T11:32:27.249Z,12.45
2023-01-12T11:34:59.105Z,12.44
2023-01-12T11:37:25.967Z,12.51
2023-01-12T11:40:01.574Z,12.65
2023-01-12T11:42:48.863Z,12.70
2023-01-12T11:45:20.691Z,12.71
2023-01-12T11:47:58.697Z,12.83
2023-01-12T11:50:28.255Z,12.82
2023-01-12T11:52:56.043Z,12.93
2023-01-12T11:55:36.007Z,13.08
2023-01-12T11:58:02.548Z,13.08
2023-01-12T12:00:44.380Z,13.10
2023-01-12T12:03:20.428Z,13.04
2023-01-12T12:05:47.023Z,13.05
2023-01-12T12:08:28.741Z,13.00
2023-01-12T12:11:01.351Z,12.80
2023-01-12T12:13:33.256Z,12.73
2023-01-12T12:16:19.270Z,12.66
2023-01-12T12:19:04.835Z,12.70
2023-01-12T12:21:48.619Z,12.71
2023-01-12T12:24:15.612Z,12.58
2023-01-12T12:26:50.980Z,12.39
2023-01-12T12:29:23.988Z,12.34
2023-01-12T12:32:06.087Z,12.39
2023-01-12T12:34:52.820Z,12.39
2023-01-12T12:37:34.838Z,12.51
2023-01-12T12:40:05.044Z,12.54
2023-01-12T12:43:02.834Z,12.59
2023-01-12T12:45:33.085Z,12.56
2023-01-12T12:48:24.297Z,12.56
2023-01-12T12:50:57.383Z,12.48
2023-01-12T12:53:33.780Z,12.52
2023-01-12T12:56:13.119Z,12.52
2023-01-12T12:58:48.360Z,12.52
2023-01-12T13:01:24.304Z,12.58
2023-01-12T13:03:52.633Z,12.55
2023-01-12T13:06:21.617Z,12.38
2023-01-12T13:08:50.951Z,12.41
2023-01-12T13:11:18.160Z,12.38
2023-01-12T13:13:59.447Z,12.46
2023-01-12T13:16:25.852Z,12.43
2023-01-12T13:18:52.380Z,12.37
2023-01-12T13:21:37.762Z,12.34
2023-01-12T13:24:24.882Z,12.26
2023-01-12T13:26:53.839Z,12.29
2023-01-12T13:29:23.522Z,12.26
2023-01-12T13:31:55.991Z,12.31
2023-01-12T13:34:29.784Z,12.32
2023-01-12T13:37:05.598Z,12.31
2023-01-12T13:39:35.527Z,12.35
2023-01-12T13:42:20.856Z,12.33
2023-01-12T13:44:48.791Z,12.28
2023-01-12T13:47:26.657Z,12.21
2023-01-12T13:49:56.491Z,12.16
2023-01-12T13:52:31.169Z,12.17
2023-01-12T13:54:58.257Z,12.23
2023-01-12T13:57:26.248Z,12.26
2023-01-12T14:00:11.063Z,12.20
2023-01-12T14:02:40.831Z,12.14
2023-01-12T14:05:18.849Z,12.18
2023-01-12T14:07:45.312Z,12.18
2023-01-12T14:10:23.833Z,12.25
2023-01-12T14:12:50.390Z,12.24
2023-01-12T14:15:41.787Z,12.14
2023-01-12T14:18:18.975Z,12.12
2023-01-12T14:20:50.498Z,12.12
2023-01-12T14:23:26.253Z,12.14
2023-01-12T14:26:06.412Z,12.07
2023-01-12T14:28:33.633Z,12.05
2023-01-12T14:31:00.468Z,12.13
2023-01-12T14:33:31.985Z,12.19
2023-01-12T14:36:02.907Z,12.09
2023-01-12T14:38:30.115Z,12.14
2023-01-12T14:41:05.382Z,12.15
2023-01-12T14:43:51.724Z,12.12
2023-01-12T14:46:29.812Z,12.10
2023-01-12T14:49:20.063Z,12.09
2023-01-12T14:51:53.813Z,12.06
2023-01-12T14:54:24.443Z,12.09
2023-01-12T14:56:56.487Z,12.14
2023-01-12T14:59:29.187Z,12.07
2023-01-12T15:02:14.356Z,12.08
2023-01-12T15:04:53.342Z,12.16
2023-01-12T15:07:20.631Z,12.17
2023-01-12T15:09:57.895Z,12.19
2023-01-12T15:12:26.211Z,12.11
2023-01-12T15:14:52.862Z,12.14
2023-01-12T15:17:38.089Z,12.13
2023-01-12T15:20:23.328Z,12.14
2023-01-12T15:23:08.239Z,12.15
2023-01-12T15:25:38.142Z,12.16
2023-01-12T15:28:06.161Z,12.16
2023-01-12T15:30:36.658Z,12.13
2023-01-12T15:33:03.809Z,12.08
2023-01-12T15:35:30.676Z,12.07
2023-01-12T15:37:58.289Z,12.02
2023-01-12T15:40:26.218Z,12.07
2023-01-12T15:42:53.488Z,11.96
2023-01-12T15:45:27.180Z,11.92
2023-01-12T15:47:54.089Z,11.84
2023-01-12T15:50:20.641Z,11.80
2023-01-12T15:52:48.635Z,11.82
2023-01-12T15:55:19.654Z,11.90
2023-01-12T15:57:47.362Z,11.91
2023-01-12T16:00:15.605Z,11.90
2023-01-12T16:02:43.949Z,11.93
2023-01-12T16:05:11.270Z,11.92
2023-01-12T16:07:37.853Z,11.95
2023-01-12T16:10:04.903Z,11.94
2023-01-12T16:12:31.453Z,11.93
2023-01-12T16:14:58.783Z,11.88
2023-01-12T16:17:25.943Z,11.82
2023-01-12T16:19:52.586Z,11.79
2023-01-12T16:22:25.229Z,11.73
2023-01-12T16:24:52.708Z,11.69
2023-01-12T16:27:20.222Z,11.74
2023-01-12T16:29:47.213Z,11.77
2023-01-12T16:32:13.973Z,11.76
2023-01-12T16:34:40.627Z,11.79
2023-01-12T16:37:12.450Z,11.76
2023-01-12T16:39:39.040Z,11.76
2023-01-12T16:42:05.728Z,11.76
2023-01-12T16:44:33.137Z,11.89
2023-01-12T16:46:59.798Z,11.94
2023-01-12T16:49:26.422Z,11.87
2023-01-12T16:51:53.353Z,11.86
2023-01-12T16:54:20.868Z,11.85
2023-01-12T16:56:47.496Z,11.78
2023-01-12T16:59:14.204Z,11.76
2023-01-12T17:01:40.920Z,11.76
2023-01-12T17:04:07.551Z,11.88
2023-01-12T17:06:34.085Z,11.88
2023-01-12T17:09:00.989Z,11.90
2023-01-12T17:11:28.294Z,11.95
2023-01-12T17:13:55.906Z,11.92
2023-01-12T17:16:23.799Z,11.89
2023-01-12T17:18:50.963Z,11.84
2023-01-12T17:21:18.522Z,11.82
2023-01-12T17:23:45.249Z,11.79
2023-01-12T17:26:13.360Z,11.77
2023-01-12T17:28:40.850Z,11.81
2023-01-12T17:31:11.903Z,11.76
2023-01-12T17:33:38.939Z,11.82
2023-01-12T17:36:19.278Z,11.89
2023-01-12T17:39:18.028Z,11.90
2023-01-12T17:45:32.524Z,11.87
2023-01-12T17:48:02.440Z,11.87
2023-01-12T17:54:19.190Z,11.86
2023-01-12T17:57:08.766Z,11.85
2023-01-12T17:59:57.839Z,11.92
2023-01-12T18:02:50.602Z,11.92
2023-01-12T18:05:26.819Z,11.79
2023-01-12T18:07:56.114Z,11.82
2023-01-12T18:10:26.454Z,11.76
2023-01-12T18:12:56.384Z,11.77
2023-01-12T18:15:29.713Z,11.77
2023-01-12T18:18:09.898Z,11.79
2023-01-12T18:20:36.952Z,11.71
2023-01-12T18:23:20.941Z,11.67
2023-01-12T18:25:56.649Z,11.69
2023-01-12T18:28:26.987Z,11.74
2023-01-12T18:31:38.235Z,11.69
2023-01-12T18:34:19.331Z,11.66
2023-01-12T18:36:53.024Z,11.71
2023-01-12T18:39:30.653Z,11.72
2023-01-12T18:42:33.892Z,11.67
2023-01-12T18:45:19.988Z,11.67
2023-01-12T18:51:29.470Z,11.70
2023-01-12T18:57:35.484Z,11.75
2023-01-12T19:00:18.787Z,11.64
2023-01-12T19:02:55.833Z,11.57
2023-01-12T19:05:41.970Z,11.58
2023-01-12T19:08:39.167Z,11.59
2023-01-12T19:11:15.737Z,11.42
2023-01-12T19:14:03.216Z,11.52
2023-01-12T19:16:52.012Z,11.44
2023-01-12T19:19:29.426Z,11.51
2023-01-12T19:22:17.809Z,11.62
2023-01-12T19:25:03.153Z,11.62
2023-01-12T19:27:48.543Z,11.51
2023-01-12T19:30:15.160Z,11.49
2023-01-12T19:32:41.919Z,11.51
2023-01-12T19:35:29.912Z,11.54
2023-01-12T19:37:56.534Z,11.56
2023-01-12T19:40:33.206Z,11.55
2023-01-12T19:43:19.950Z,11.45
2023-01-12T19:45:48.699Z,11.40
2023-01-12T19:48:15.870Z,11.52
2023-01-12T19:50:44.126Z,11.62
2023-01-12T19:53:15.370Z,11.55
2023-01-12T19:55:42.755Z,11.62
2023-01-12T19:58:09.745Z,11.64
2023-01-12T20:00:41.235Z,11.58
2023-01-12T20:03:08.810Z,11.46
2023-01-12T20:05:39.136Z,11.54
2023-01-12T20:08:06.057Z,11.64
2023-01-12T20:10:33.389Z,11.72
2023-01-12T20:13:02.595Z,11.76
2023-01-12T20:15:31.514Z,11.66
2023-01-12T20:18:00.070Z,11.66
2023-01-12T20:20:29.432Z,11.65
2023-01-12T20:22:56.217Z,11.58
2023-01-12T20:25:23.652Z,11.62
2023-01-12T20:27:51.143Z,11.71
2023-01-12T20:30:36.581Z,11.74
2023-01-12T20:33:06.204Z,11.73
2023-01-12T20:35:35.396Z,11.73
2023-01-12T20:38:06.100Z,11.66
2023-01-12T20:40:34.265Z,11.68
2023-01-12T20:43:00.874Z,11.76
2023-01-12T20:45:27.915Z,11.77
2023-01-12T20:47:55.874Z,11.73
2023-01-12T20:50:24.221Z,11.75
2023-01-12T20:52:52.668Z,11.77
2023-01-12T20:55:21.075Z,11.76
2023-01-12T20:57:48.179Z,11.77
2023-01-12T21:00:14.879Z,11.66
2023-01-12T21:02:41.738Z,11.73
2023-01-12T21:05:10.843Z,11.72
2023-01-12T21:07:37.467Z,11.69
2023-01-12T21:10:08.779Z,11.65
2023-01-12T21:12:38.483Z,11.69
2023-01-12T21:15:05.493Z,11.76
2023-01-12T21:17:32.191Z,11.75
2023-01-12T21:19:59.054Z,11.78
2023-01-12T21:23:15.244Z,11.69
2023-01-12T21:26:09.090Z,11.65
2023-01-12T21:28:40.858Z,11.49
2023-01-12T21:31:30.006Z,11.58
2023-01-12T21:34:02.586Z,11.69
2023-01-12T21:37:05.673Z,11.71
2023-01-12T21:39:53.046Z,11.68
2023-01-12T21:45:40.242Z,11.55
2023-01-12T21:48:16.117Z,11.55
2023-01-12T21:51:03.966Z,11.57
2023-01-12T21:53:46.589Z,11.51
2023-01-12T21:56:16.453Z,11.56
2023-01-12T21:58:57.988Z,11.64
2023-01-12T22:01:36.139Z,11.66
2023-01-12T22:04:20.309Z,11.63
2023-01-12T22:06:53.759Z,11.65
2023-01-12T22:09:48.946Z,11.56
2023-01-12T22:12:23.540Z,11.56
2023-01-12T22:15:04.587Z,11.65
2023-01-12T22:17:40.179Z,11.68
2023-01-12T22:20:07.961Z,11.61
2023-01-12T22:22:46.839Z,11.65
2023-01-12T22:25:21.172Z,11.69
2023-01-12T22:30:38.213Z,11.71
2023-01-12T22:33:24.924Z,11.75
2023-01-12T22:35:52.331Z,11.82
2023-01-12T22:38:19.873Z,11.86
2023-01-12T22:40:56.192Z,11.84
2023-01-12T22:43:26.693Z,11.82
2023-01-12T22:45:57.925Z,11.85
2023-01-12T22:48:25.735Z,11.92
2023-01-12T22:50:54.573Z,11.90
2023-01-12T22:53:24.216Z,11.83
2023-01-12T22:55:51.517Z,11.84
2023-01-12T22:58:18.462Z,11.91
2023-01-12T23:00:45.682Z,11.90
2023-01-12T23:03:13.420Z,11.96
2023-01-12T23:05:46.012Z,11.98
2023-01-12T23:08:16.108Z,11.98
2023-01-12T23:10:53.081Z,12.02
2023-01-12T23:13:21.339Z,12.06
2023-01-12T23:15:48.080Z,12.03
2023-01-12T23:18:17.288Z,12.00
2023-01-12T23:20:44.448Z,11.93
2023-01-12T23:23:14.784Z,12.01
2023-01-12T23:25:46.487Z,12.01
2023-01-12T23:28:14.327Z,11.96
2023-01-12T23:30:41.198Z,11.91
2023-01-12T23:33:07.945Z,11.81
2023-01-12T23:35:36.003Z,11.82
2023-01-12T23:38:05.929Z,11.89
2023-01-12T23:40:32.409Z,12.02
2023-01-12T23:43:00.585Z,12.04
2023-01-12T23:48:27.710Z,12.14
2023-01-12T23:51:16.244Z,12.21
2023-01-12T23:53:55.852Z,12.22
2023-01-12T23:56:32.390Z,12.18
2023-01-12T23:59:08.821Z,12.20
